sensor_id;sensor_type;location;lat;lon;timestamp;temperature;humidity
23507;DHT22;11930;53.076;18.250;2023-07-30T00:01:02;16.70;99.90
23507;DHT22;11930;53.076;18.250;2023-07-30T00:03:40;16.70;99.90
23507;DHT22;11930;53.076;18.250;2023-07-30T00:06:07;16.70;99.90
23507;DHT22;11930;53.076;18.250;2023-07-30T00:08:32;16.70;99.90
23507;DHT22;11930;53.076;18.250;2023-07-30T00:10:59;16.70;99.90
23507;DHT22;11930;53.076;18.250;2023-07-30T00:13:25;16.70;99.90
23507;DHT22;11930;53.076;18.250;2023-07-30T00:15:51;16.70;99.90
23507;DHT22;11930;53.076;18.250;2023-07-30T00:18:17;16.70;99.90
23507;DHT22;11930;53.076;18.250;2023-07-30T00:20:43;16.70;99.90
23507;DHT22;11930;53.076;18.250;2023-07-30T00:23:09;16.70;99.90
23507;DHT22;11930;53.076;18.250;2023-07-30T00:25:36;16.70;99.90
23507;DHT22;11930;53.076;18.250;2023-07-30T00:28:02;16.70;99.90
23507;DHT22;11930;53.076;18.250;2023-07-30T00:30:28;16.70;99.90
23507;DHT22;11930;53.076;18.250;2023-07-30T00:32:54;16.70;99.90
23507;DHT22;11930;53.076;18.250;2023-07-30T00:35:20;16.70;99.90
23507;DHT22;11930;53.076;18.250;2023-07-30T00:37:46;16.70;99.90
23507;DHT22;11930;53.076;18.250;2023-07-30T00:40:12;16.70;99.90
23507;DHT22;11930;53.076;18.250;2023-07-30T00:42:38;16.70;99.90
23507;DHT22;11930;53.076;18.250;2023-07-30T00:45:04;16.70;99.90
23507;DHT22;11930;53.076;18.250;2023-07-30T00:47:30;16.70;99.90
23507;DHT22;11930;53.076;18.250;2023-07-30T00:49:57;16.70;99.90
23507;DHT22;11930;53.076;18.250;2023-07-30T00:52:24;16.70;99.90
23507;DHT22;11930;53.076;18.250;2023-07-30T00:54:52;16.70;99.90
23507;DHT22;11930;53.076;18.250;2023-07-30T00:57:20;16.70;99.90
23507;DHT22;11930;53.076;18.250;2023-07-30T00:59:47;16.70;99.90
23507;DHT22;11930;53.076;18.250;2023-07-30T01:02:14;16.70;99.90
23507;DHT22;11930;53.076;18.250;2023-07-30T01:04:42;16.70;99.90
23507;DHT22;11930;53.076;18.250;2023-07-30T01:07:07;16.70;99.90
23507;DHT22;11930;53.076;18.250;2023-07-30T01:09:34;16.60;99.90
23507;DHT22;11930;53.076;18.250;2023-07-30T01:12:00;16.60;99.90
23507;DHT22;11930;53.076;18.250;2023-07-30T01:14:27;16.60;99.90
23507;DHT22;11930;53.076;18.250;2023-07-30T01:16:54;16.60;99.90
23507;DHT22;11930;53.076;18.250;2023-07-30T01:19:20;16.60;99.90
23507;DHT22;11930;53.076;18.250;2023-07-30T01:21:46;16.60;99.90
23507;DHT22;11930;53.076;18.250;2023-07-30T01:24:12;16.60;99.90
23507;DHT22;11930;53.076;18.250;2023-07-30T01:26:51;16.60;99.90
23507;DHT22;11930;53.076;18.250;2023-07-30T01:29:44;16.60;99.90
23507;DHT22;11930;53.076;18.250;2023-07-30T01:32:12;16.60;99.90
23507;DHT22;11930;53.076;18.250;2023-07-30T01:34:41;16.60;99.90
23507;DHT22;11930;53.076;18.250;2023-07-30T01:37:09;16.60;99.90
23507;DHT22;11930;53.076;18.250;2023-07-30T01:39:37;16.60;99.90
23507;DHT22;11930;53.076;18.250;2023-07-30T01:42:04;16.60;99.90
23507;DHT22;11930;53.076;18.250;2023-07-30T01:44:30;16.60;99.90
23507;DHT22;11930;53.076;18.250;2023-07-30T01:46:56;16.70;99.90
23507;DHT22;11930;53.076;18.250;2023-07-30T01:49:22;16.60;99.90
23507;DHT22;11930;53.076;18.250;2023-07-30T01:51:48;16.60;99.90
23507;DHT22;11930;53.076;18.250;2023-07-30T01:54:15;16.70;99.90
23507;DHT22;11930;53.076;18.250;2023-07-30T01:56:41;16.60;99.90
23507;DHT22;11930;53.076;18.250;2023-07-30T01:59:07;16.70;99.90
23507;DHT22;11930;53.076;18.250;2023-07-30T02:01:33;16.70;99.90
23507;DHT22;11930;53.076;18.250;2023-07-30T02:03:59;16.70;99.90
23507;DHT22;11930;53.076;18.250;2023-07-30T02:06:25;16.70;99.90
23507;DHT22;11930;53.076;18.250;2023-07-30T02:08:52;16.70;99.90
23507;DHT22;11930;53.076;18.250;2023-07-30T02:11:18;16.60;99.90
23507;DHT22;11930;53.076;18.250;2023-07-30T02:13:44;16.60;99.90
23507;DHT22;11930;53.076;18.250;2023-07-30T02:16:11;16.60;99.90
23507;DHT22;11930;53.076;18.250;2023-07-30T02:18:37;16.60;99.90
23507;DHT22;11930;53.076;18.250;2023-07-30T02:21:03;16.60;99.90
23507;DHT22;11930;53.076;18.250;2023-07-30T02:23:29;16.50;99.90
23507;DHT22;11930;53.076;18.250;2023-07-30T02:25:55;16.50;99.90
23507;DHT22;11930;53.076;18.250;2023-07-30T02:28:21;16.60;99.90
23507;DHT22;11930;53.076;18.250;2023-07-30T02:33:14;16.50;99.90
23507;DHT22;11930;53.076;18.250;2023-07-30T02:35:40;16.50;99.90
23507;DHT22;11930;53.076;18.250;2023-07-30T02:38:06;16.60;99.90
23507;DHT22;11930;53.076;18.250;2023-07-30T02:40:32;16.50;99.90
23507;DHT22;11930;53.076;18.250;2023-07-30T02:42:58;16.60;99.90
23507;DHT22;11930;53.076;18.250;2023-07-30T02:45:25;16.60;99.90
23507;DHT22;11930;53.076;18.250;2023-07-30T02:47:51;16.60;99.90
23507;DHT22;11930;53.076;18.250;2023-07-30T02:50:17;16.60;99.90
23507;DHT22;11930;53.076;18.250;2023-07-30T02:52:43;16.60;99.90
23507;DHT22;11930;53.076;18.250;2023-07-30T02:55:10;16.60;99.90
23507;DHT22;11930;53.076;18.250;2023-07-30T02:57:36;16.60;99.90
23507;DHT22;11930;53.076;18.250;2023-07-30T03:00:02;16.60;99.90
23507;DHT22;11930;53.076;18.250;2023-07-30T03:02:30;16.60;99.90
23507;DHT22;11930;53.076;18.250;2023-07-30T03:04:56;16.60;99.90
23507;DHT22;11930;53.076;18.250;2023-07-30T03:07:22;16.60;99.90
23507;DHT22;11930;53.076;18.250;2023-07-30T03:09:49;16.70;99.90
23507;DHT22;11930;53.076;18.250;2023-07-30T03:12:15;16.70;99.90
23507;DHT22;11930;53.076;18.250;2023-07-30T03:14:41;16.70;99.90
23507;DHT22;11930;53.076;18.250;2023-07-30T03:17:07;16.70;99.90
23507;DHT22;11930;53.076;18.250;2023-07-30T03:19:33;16.70;99.90
23507;DHT22;11930;53.076;18.250;2023-07-30T03:22:00;16.70;99.90
23507;DHT22;11930;53.076;18.250;2023-07-30T03:24:26;16.70;99.90
23507;DHT22;11930;53.076;18.250;2023-07-30T03:26:52;16.70;99.90
23507;DHT22;11930;53.076;18.250;2023-07-30T03:29:18;16.80;99.90
23507;DHT22;11930;53.076;18.250;2023-07-30T03:31:44;16.80;99.90
23507;DHT22;11930;53.076;18.250;2023-07-30T03:34:10;16.80;99.90
23507;DHT22;11930;53.076;18.250;2023-07-30T03:36:36;16.80;99.90
23507;DHT22;11930;53.076;18.250;2023-07-30T03:39:02;16.80;99.90
23507;DHT22;11930;53.076;18.250;2023-07-30T03:41:28;16.80;99.90
23507;DHT22;11930;53.076;18.250;2023-07-30T03:43:54;16.80;99.90
23507;DHT22;11930;53.076;18.250;2023-07-30T03:46:20;16.90;99.90
23507;DHT22;11930;53.076;18.250;2023-07-30T03:48:46;16.90;99.90
23507;DHT22;11930;53.076;18.250;2023-07-30T03:51:12;16.90;99.90
23507;DHT22;11930;53.076;18.250;2023-07-30T03:53:39;17.00;99.90
23507;DHT22;11930;53.076;18.250;2023-07-30T03:56:05;16.90;99.90
23507;DHT22;11930;53.076;18.250;2023-07-30T03:58:31;17.00;99.90
23507;DHT22;11930;53.076;18.250;2023-07-30T04:00:57;17.00;99.90
23507;DHT22;11930;53.076;18.250;2023-07-30T04:03:23;17.00;99.90
23507;DHT22;11930;53.076;18.250;2023-07-30T04:05:49;17.00;99.90
23507;DHT22;11930;53.076;18.250;2023-07-30T04:08:16;17.10;99.90
23507;DHT22;11930;53.076;18.250;2023-07-30T04:10:42;17.10;99.90
23507;DHT22;11930;53.076;18.250;2023-07-30T04:13:08;17.10;99.90
23507;DHT22;11930;53.076;18.250;2023-07-30T04:15:34;17.10;99.90
23507;DHT22;11930;53.076;18.250;2023-07-30T04:18:00;17.20;99.90
23507;DHT22;11930;53.076;18.250;2023-07-30T04:20:26;17.20;99.90
23507;DHT22;11930;53.076;18.250;2023-07-30T04:22:54;17.30;99.90
23507;DHT22;11930;53.076;18.250;2023-07-30T04:25:21;17.30;99.90
23507;DHT22;11930;53.076;18.250;2023-07-30T04:27:47;17.30;99.90
23507;DHT22;11930;53.076;18.250;2023-07-30T04:30:13;17.40;99.90
23507;DHT22;11930;53.076;18.250;2023-07-30T04:32:39;17.40;99.90
23507;DHT22;11930;53.076;18.250;2023-07-30T04:35:06;17.40;99.90
23507;DHT22;11930;53.076;18.250;2023-07-30T04:37:32;17.50;99.90
23507;DHT22;11930;53.076;18.250;2023-07-30T04:39:58;17.50;99.90
23507;DHT22;11930;53.076;18.250;2023-07-30T04:42:26;17.50;99.90
23507;DHT22;11930;53.076;18.250;2023-07-30T04:44:52;17.50;99.90
23507;DHT22;11930;53.076;18.250;2023-07-30T04:47:18;17.50;99.90
23507;DHT22;11930;53.076;18.250;2023-07-30T04:49:44;17.60;99.90
23507;DHT22;11930;53.076;18.250;2023-07-30T04:52:10;17.60;99.90
23507;DHT22;11930;53.076;18.250;2023-07-30T04:54:36;17.60;99.90
23507;DHT22;11930;53.076;18.250;2023-07-30T04:57:03;17.60;99.90
23507;DHT22;11930;53.076;18.250;2023-07-30T04:59:29;17.60;99.90
23507;DHT22;11930;53.076;18.250;2023-07-30T05:01:55;17.70;99.90
23507;DHT22;11930;53.076;18.250;2023-07-30T05:04:21;17.70;99.90
23507;DHT22;11930;53.076;18.250;2023-07-30T05:06:47;17.70;99.90
23507;DHT22;11930;53.076;18.250;2023-07-30T05:09:14;17.80;99.90
23507;DHT22;11930;53.076;18.250;2023-07-30T05:14:06;17.80;99.90
23507;DHT22;11930;53.076;18.250;2023-07-30T05:16:32;17.90;99.90
23507;DHT22;11930;53.076;18.250;2023-07-30T05:18:58;17.80;99.90
23507;DHT22;11930;53.076;18.250;2023-07-30T05:21:24;17.80;99.90
23507;DHT22;11930;53.076;18.250;2023-07-30T05:23:51;17.90;99.90
23507;DHT22;11930;53.076;18.250;2023-07-30T05:26:16;17.80;99.90
23507;DHT22;11930;53.076;18.250;2023-07-30T05:28:43;17.90;99.90
23507;DHT22;11930;53.076;18.250;2023-07-30T05:31:08;17.90;99.90
23507;DHT22;11930;53.076;18.250;2023-07-30T05:33:35;18.00;99.90
23507;DHT22;11930;53.076;18.250;2023-07-30T05:36:01;18.00;99.90
23507;DHT22;11930;53.076;18.250;2023-07-30T05:38:27;18.00;99.90
23507;DHT22;11930;53.076;18.250;2023-07-30T05:40:52;18.00;99.90
23507;DHT22;11930;53.076;18.250;2023-07-30T05:43:18;18.00;99.90
23507;DHT22;11930;53.076;18.250;2023-07-30T05:45:44;18.10;99.90
23507;DHT22;11930;53.076;18.250;2023-07-30T05:48:11;18.10;99.90
23507;DHT22;11930;53.076;18.250;2023-07-30T05:50:37;18.20;99.90
23507;DHT22;11930;53.076;18.250;2023-07-30T05:53:03;18.30;99.90
23507;DHT22;11930;53.076;18.250;2023-07-30T05:55:29;18.40;99.90
23507;DHT22;11930;53.076;18.250;2023-07-30T05:57:55;18.60;99.90
23507;DHT22;11930;53.076;18.250;2023-07-30T06:02:50;18.60;99.90
23507;DHT22;11930;53.076;18.250;2023-07-30T06:05:17;18.60;99.90
23507;DHT22;11930;53.076;18.250;2023-07-30T06:07:43;18.80;99.90
23507;DHT22;11930;53.076;18.250;2023-07-30T06:10:09;18.80;99.90
23507;DHT22;11930;53.076;18.250;2023-07-30T06:12:35;18.80;99.90
23507;DHT22;11930;53.076;18.250;2023-07-30T06:15:01;18.90;99.90
23507;DHT22;11930;53.076;18.250;2023-07-30T06:17:28;19.00;99.90
23507;DHT22;11930;53.076;18.250;2023-07-30T06:19:53;19.10;99.90
23507;DHT22;11930;53.076;18.250;2023-07-30T06:22:20;19.10;99.90
23507;DHT22;11930;53.076;18.250;2023-07-30T06:24:46;19.20;99.90
23507;DHT22;11930;53.076;18.250;2023-07-30T06:27:12;19.40;99.90
23507;DHT22;11930;53.076;18.250;2023-07-30T06:29:38;19.70;99.90
23507;DHT22;11930;53.076;18.250;2023-07-30T06:32:06;19.70;99.90
23507;DHT22;11930;53.076;18.250;2023-07-30T07:01:42;21.10;99.90
23507;DHT22;11930;53.076;18.250;2023-07-30T07:12:06;21.90;99.90
23507;DHT22;11930;53.076;18.250;2023-07-30T07:29:14;22.30;99.90
23507;DHT22;11930;53.076;18.250;2023-07-30T07:31:41;22.20;99.90
23507;DHT22;11930;53.076;18.250;2023-07-30T07:34:08;22.20;99.90
23507;DHT22;11930;53.076;18.250;2023-07-30T07:36:34;22.10;99.90
23507;DHT22;11930;53.076;18.250;2023-07-30T07:39:02;22.10;99.90
23507;DHT22;11930;53.076;18.250;2023-07-30T07:41:28;22.10;99.90
23507;DHT22;11930;53.076;18.250;2023-07-30T07:43:54;22.50;99.90
23507;DHT22;11930;53.076;18.250;2023-07-30T07:46:21;22.50;99.90
23507;DHT22;11930;53.076;18.250;2023-07-30T07:48:47;22.80;99.90
23507;DHT22;11930;53.076;18.250;2023-07-30T07:51:13;23.00;99.90
23507;DHT22;11930;53.076;18.250;2023-07-30T07:53:39;23.10;99.90
23507;DHT22;11930;53.076;18.250;2023-07-30T07:56:05;23.10;99.90
23507;DHT22;11930;53.076;18.250;2023-07-30T07:58:32;23.00;99.90
23507;DHT22;11930;53.076;18.250;2023-07-30T08:01:02;22.60;99.90
23507;DHT22;11930;53.076;18.250;2023-07-30T08:03:28;22.60;99.90
23507;DHT22;11930;53.076;18.250;2023-07-30T08:05:54;22.40;99.90
23507;DHT22;11930;53.076;18.250;2023-07-30T08:08:20;22.30;99.90
23507;DHT22;11930;53.076;18.250;2023-07-30T08:10:47;22.10;99.90
23507;DHT22;11930;53.076;18.250;2023-07-30T08:13:14;22.10;99.90
23507;DHT22;11930;53.076;18.250;2023-07-30T08:15:40;22.00;99.90
23507;DHT22;11930;53.076;18.250;2023-07-30T08:18:06;22.10;99.90
23507;DHT22;11930;53.076;18.250;2023-07-30T08:20:32;22.10;99.90
23507;DHT22;11930;53.076;18.250;2023-07-30T08:22:59;22.20;99.90
23507;DHT22;11930;53.076;18.250;2023-07-30T08:25:28;22.30;99.90
23507;DHT22;11930;53.076;18.250;2023-07-30T08:27:54;22.40;99.90
23507;DHT22;11930;53.076;18.250;2023-07-30T08:30:20;22.50;99.90
23507;DHT22;11930;53.076;18.250;2023-07-30T08:32:46;22.60;99.90
23507;DHT22;11930;53.076;18.250;2023-07-30T08:35:12;22.50;99.90
23507;DHT22;11930;53.076;18.250;2023-07-30T08:37:38;22.70;99.90
23507;DHT22;11930;53.076;18.250;2023-07-30T08:40:05;22.30;99.90
23507;DHT22;11930;53.076;18.250;2023-07-30T08:42:32;22.30;99.90
23507;DHT22;11930;53.076;18.250;2023-07-30T08:44:59;22.40;99.90
23507;DHT22;11930;53.076;18.250;2023-07-30T08:47:25;22.70;99.90
23507;DHT22;11930;53.076;18.250;2023-07-30T08:49:51;23.20;99.90
23507;DHT22;11930;53.076;18.250;2023-07-30T08:52:18;23.60;99.90
23507;DHT22;11930;53.076;18.250;2023-07-30T08:54:47;24.00;99.90
23507;DHT22;11930;53.076;18.250;2023-07-30T08:57:16;24.00;99.90
23507;DHT22;11930;53.076;18.250;2023-07-30T08:59:49;24.00;99.90
23507;DHT22;11930;53.076;18.250;2023-07-30T09:02:28;24.10;99.90
23507;DHT22;11930;53.076;18.250;2023-07-30T09:04:58;24.10;99.90
23507;DHT22;11930;53.076;18.250;2023-07-30T09:07:25;24.00;99.90
23507;DHT22;11930;53.076;18.250;2023-07-30T09:09:51;23.90;99.90
23507;DHT22;11930;53.076;18.250;2023-07-30T09:12:17;23.80;99.90
23507;DHT22;11930;53.076;18.250;2023-07-30T09:14:43;23.90;99.90
23507;DHT22;11930;53.076;18.250;2023-07-30T09:17:16;24.70;99.90
23507;DHT22;11930;53.076;18.250;2023-07-30T09:19:42;24.70;99.90
23507;DHT22;11930;53.076;18.250;2023-07-30T09:22:08;25.10;99.90
23507;DHT22;11930;53.076;18.250;2023-07-30T09:24:34;25.50;99.90
23507;DHT22;11930;53.076;18.250;2023-07-30T09:27:02;25.90;99.90
23507;DHT22;11930;53.076;18.250;2023-07-30T09:29:28;26.20;99.90
23507;DHT22;11930;53.076;18.250;2023-07-30T09:31:55;26.30;99.90
23507;DHT22;11930;53.076;18.250;2023-07-30T09:34:23;26.20;99.90
23507;DHT22;11930;53.076;18.250;2023-07-30T09:36:56;26.10;99.90
23507;DHT22;11930;53.076;18.250;2023-07-30T09:44:28;25.80;99.90
23507;DHT22;11930;53.076;18.250;2023-07-30T09:46:54;25.70;99.90
23507;DHT22;11930;53.076;18.250;2023-07-30T09:49:21;25.50;99.90
23507;DHT22;11930;53.076;18.250;2023-07-30T09:51:47;25.40;99.90
23507;DHT22;11930;53.076;18.250;2023-07-30T09:54:16;25.40;99.90
23507;DHT22;11930;53.076;18.250;2023-07-30T09:59:10;25.10;99.90
23507;DHT22;11930;53.076;18.250;2023-07-30T10:01:46;25.00;99.90
23507;DHT22;11930;53.076;18.250;2023-07-30T10:04:12;25.00;99.90
23507;DHT22;11930;53.076;18.250;2023-07-30T10:06:42;25.10;99.90
23507;DHT22;11930;53.076;18.250;2023-07-30T10:09:12;25.20;99.90
23507;DHT22;11930;53.076;18.250;2023-07-30T10:11:40;25.20;99.90
23507;DHT22;11930;53.076;18.250;2023-07-30T10:14:07;25.20;99.90
23507;DHT22;11930;53.076;18.250;2023-07-30T10:16:33;25.30;99.90
23507;DHT22;11930;53.076;18.250;2023-07-30T10:18:59;25.40;99.90
23507;DHT22;11930;53.076;18.250;2023-07-30T10:21:26;25.50;99.90
23507;DHT22;11930;53.076;18.250;2023-07-30T10:24:00;25.60;99.90
23507;DHT22;11930;53.076;18.250;2023-07-30T10:26:32;25.70;99.90
23507;DHT22;11930;53.076;18.250;2023-07-30T10:31:41;26.00;99.90
23507;DHT22;11930;53.076;18.250;2023-07-30T10:34:09;26.10;99.90
23507;DHT22;11930;53.076;18.250;2023-07-30T10:39:21;26.30;99.90
23507;DHT22;11930;53.076;18.250;2023-07-30T10:41:54;26.40;99.90
23507;DHT22;11930;53.076;18.250;2023-07-30T10:44:26;26.50;99.90
23507;DHT22;11930;53.076;18.250;2023-07-30T10:46:57;26.50;99.90
23507;DHT22;11930;53.076;18.250;2023-07-30T10:49:23;26.50;99.90
23507;DHT22;11930;53.076;18.250;2023-07-30T10:51:55;26.50;99.90
23507;DHT22;11930;53.076;18.250;2023-07-30T10:54:21;26.30;99.90
23507;DHT22;11930;53.076;18.250;2023-07-30T10:56:47;26.20;99.90
23507;DHT22;11930;53.076;18.250;2023-07-30T10:59:14;26.10;99.90
23507;DHT22;11930;53.076;18.250;2023-07-30T11:01:43;26.00;99.90
23507;DHT22;11930;53.076;18.250;2023-07-30T11:04:15;26.00;99.90
23507;DHT22;11930;53.076;18.250;2023-07-30T11:06:45;26.00;99.90
23507;DHT22;11930;53.076;18.250;2023-07-30T11:09:20;26.00;99.90
23507;DHT22;11930;53.076;18.250;2023-07-30T11:11:46;25.90;99.90
23507;DHT22;11930;53.076;18.250;2023-07-30T11:16:53;25.80;99.90
23507;DHT22;11930;53.076;18.250;2023-07-30T11:21:51;25.80;99.90
23507;DHT22;11930;53.076;18.250;2023-07-30T11:24:18;25.80;99.90
23507;DHT22;11930;53.076;18.250;2023-07-30T11:26:44;25.90;99.90
23507;DHT22;11930;53.076;18.250;2023-07-30T11:29:17;25.90;99.90
23507;DHT22;11930;53.076;18.250;2023-07-30T11:31:44;26.00;99.90
23507;DHT22;11930;53.076;18.250;2023-07-30T11:34:12;26.10;99.90
23507;DHT22;11930;53.076;18.250;2023-07-30T11:36:39;26.10;99.90
23507;DHT22;11930;53.076;18.250;2023-07-30T11:39:06;26.20;99.90
23507;DHT22;11930;53.076;18.250;2023-07-30T11:41:33;26.20;99.90
23507;DHT22;11930;53.076;18.250;2023-07-30T11:43:59;26.20;99.90
23507;DHT22;11930;53.076;18.250;2023-07-30T11:46:25;26.10;99.90
23507;DHT22;11930;53.076;18.250;2023-07-30T11:48:54;26.10;99.90
23507;DHT22;11930;53.076;18.250;2023-07-30T11:51:35;26.20;99.90
23507;DHT22;11930;53.076;18.250;2023-07-30T11:54:02;26.10;99.90
23507;DHT22;11930;53.076;18.250;2023-07-30T11:56:30;26.20;99.90
23507;DHT22;11930;53.076;18.250;2023-07-30T11:58:58;26.20;99.90
23507;DHT22;11930;53.076;18.250;2023-07-30T12:01:28;26.30;99.90
23507;DHT22;11930;53.076;18.250;2023-07-30T12:03:55;26.40;99.90
23507;DHT22;11930;53.076;18.250;2023-07-30T12:06:21;26.40;99.80
23507;DHT22;11930;53.076;18.250;2023-07-30T12:08:51;26.40;97.70
23507;DHT22;11930;53.076;18.250;2023-07-30T12:11:18;26.30;97.90
23507;DHT22;11930;53.076;18.250;2023-07-30T12:13:46;26.30;96.80
23507;DHT22;11930;53.076;18.250;2023-07-30T12:16:13;26.30;94.90
23507;DHT22;11930;53.076;18.250;2023-07-30T12:18:40;26.20;96.10
23507;DHT22;11930;53.076;18.250;2023-07-30T12:21:07;26.10;96.20
23507;DHT22;11930;53.076;18.250;2023-07-30T12:23:34;26.10;94.60
23507;DHT22;11930;53.076;18.250;2023-07-30T12:26:01;26.10;95.30
23507;DHT22;11930;53.076;18.250;2023-07-30T12:28:34;26.00;91.40
23507;DHT22;11930;53.076;18.250;2023-07-30T12:31:00;26.00;90.60
23507;DHT22;11930;53.076;18.250;2023-07-30T12:33:27;25.60;92.40
23507;DHT22;11930;53.076;18.250;2023-07-30T12:35:53;25.50;95.30
23507;DHT22;11930;53.076;18.250;2023-07-30T12:38:19;25.40;94.30
23507;DHT22;11930;53.076;18.250;2023-07-30T12:40:45;25.40;96.20
23507;DHT22;11930;53.076;18.250;2023-07-30T12:43:11;25.50;92.70
23507;DHT22;11930;53.076;18.250;2023-07-30T12:45:37;25.50;93.90
23507;DHT22;11930;53.076;18.250;2023-07-30T12:48:05;25.40;92.60
23507;DHT22;11930;53.076;18.250;2023-07-30T12:50:31;25.40;95.80
23507;DHT22;11930;53.076;18.250;2023-07-30T12:52:57;25.50;95.40
23507;DHT22;11930;53.076;18.250;2023-07-30T12:55:23;25.60;95.20
23507;DHT22;11930;53.076;18.250;2023-07-30T12:57:49;25.70;93.60
23507;DHT22;11930;53.076;18.250;2023-07-30T13:00:16;25.70;88.10
23507;DHT22;11930;53.076;18.250;2023-07-30T13:02:43;25.80;95.10
23507;DHT22;11930;53.076;18.250;2023-07-30T13:05:09;25.80;93.00
23507;DHT22;11930;53.076;18.250;2023-07-30T13:07:36;25.90;92.10
23507;DHT22;11930;53.076;18.250;2023-07-30T13:10:08;26.00;93.10
23507;DHT22;11930;53.076;18.250;2023-07-30T13:12:35;26.10;92.70
23507;DHT22;11930;53.076;18.250;2023-07-30T13:15:02;26.10;90.60
23507;DHT22;11930;53.076;18.250;2023-07-30T13:17:29;26.00;92.60
23507;DHT22;11930;53.076;18.250;2023-07-30T13:19:55;26.00;92.80
23507;DHT22;11930;53.076;18.250;2023-07-30T13:22:21;25.90;91.90
23507;DHT22;11930;53.076;18.250;2023-07-30T13:24:47;25.90;92.30
23507;DHT22;11930;53.076;18.250;2023-07-30T13:27:13;25.80;92.40
23507;DHT22;11930;53.076;18.250;2023-07-30T13:29:39;25.80;92.20
23507;DHT22;11930;53.076;18.250;2023-07-30T13:32:06;25.80;91.10
23507;DHT22;11930;53.076;18.250;2023-07-30T13:34:32;25.90;90.50
23507;DHT22;11930;53.076;18.250;2023-07-30T13:36:58;25.80;90.30
23507;DHT22;11930;53.076;18.250;2023-07-30T13:39:24;26.00;91.00
23507;DHT22;11930;53.076;18.250;2023-07-30T13:41:50;26.10;92.40
23507;DHT22;11930;53.076;18.250;2023-07-30T13:44:16;26.20;90.70
23507;DHT22;11930;53.076;18.250;2023-07-30T13:46:42;26.30;90.40
23507;DHT22;11930;53.076;18.250;2023-07-30T13:49:08;26.30;89.40
23507;DHT22;11930;53.076;18.250;2023-07-30T13:51:34;26.30;88.20
23507;DHT22;11930;53.076;18.250;2023-07-30T13:54:00;26.20;89.50
23507;DHT22;11930;53.076;18.250;2023-07-30T13:56:28;26.10;87.20
23507;DHT22;11930;53.076;18.250;2023-07-30T13:58:54;26.00;90.00
23507;DHT22;11930;53.076;18.250;2023-07-30T14:01:20;25.90;90.50
23507;DHT22;11930;53.076;18.250;2023-07-30T14:03:47;25.90;91.50
23507;DHT22;11930;53.076;18.250;2023-07-30T14:06:14;26.00;91.00
23507;DHT22;11930;53.076;18.250;2023-07-30T14:08:40;26.10;88.00
23507;DHT22;11930;53.076;18.250;2023-07-30T14:11:06;26.10;90.60
23507;DHT22;11930;53.076;18.250;2023-07-30T14:13:32;26.10;86.20
23507;DHT22;11930;53.076;18.250;2023-07-30T14:15:58;26.10;89.10
23507;DHT22;11930;53.076;18.250;2023-07-30T14:18:25;26.00;89.80
23507;DHT22;11930;53.076;18.250;2023-07-30T14:20:52;26.00;88.20
23507;DHT22;11930;53.076;18.250;2023-07-30T14:23:18;25.90;86.30
23507;DHT22;11930;53.076;18.250;2023-07-30T14:25:44;25.90;87.20
23507;DHT22;11930;53.076;18.250;2023-07-30T14:28:10;25.70;88.00
23507;DHT22;11930;53.076;18.250;2023-07-30T14:30:37;25.70;88.30
23507;DHT22;11930;53.076;18.250;2023-07-30T14:33:03;25.70;89.80
23507;DHT22;11930;53.076;18.250;2023-07-30T14:35:30;25.80;90.10
23507;DHT22;11930;53.076;18.250;2023-07-30T14:37:56;25.90;86.10
23507;DHT22;11930;53.076;18.250;2023-07-30T14:40:22;26.10;87.60
23507;DHT22;11930;53.076;18.250;2023-07-30T14:42:49;26.10;83.40
23507;DHT22;11930;53.076;18.250;2023-07-30T14:45:15;26.20;83.00
23507;DHT22;11930;53.076;18.250;2023-07-30T14:47:41;26.10;79.20
23507;DHT22;11930;53.076;18.250;2023-07-30T14:50:07;26.10;83.30
23507;DHT22;11930;53.076;18.250;2023-07-30T14:52:33;26.10;82.40
23507;DHT22;11930;53.076;18.250;2023-07-30T14:54:59;26.10;82.60
23507;DHT22;11930;53.076;18.250;2023-07-30T14:57:25;26.10;83.80
23507;DHT22;11930;53.076;18.250;2023-07-30T14:59:51;26.10;85.00
23507;DHT22;11930;53.076;18.250;2023-07-30T15:02:18;26.10;83.30
23507;DHT22;11930;53.076;18.250;2023-07-30T15:04:44;26.10;82.20
23507;DHT22;11930;53.076;18.250;2023-07-30T15:07:11;26.10;82.40
23507;DHT22;11930;53.076;18.250;2023-07-30T15:09:37;26.10;80.10
23507;DHT22;11930;53.076;18.250;2023-07-30T15:12:05;26.10;80.30
23507;DHT22;11930;53.076;18.250;2023-07-30T15:14:35;26.10;84.80
23507;DHT22;11930;53.076;18.250;2023-07-30T15:17:00;26.10;84.60
23507;DHT22;11930;53.076;18.250;2023-07-30T15:19:27;26.10;83.40
23507;DHT22;11930;53.076;18.250;2023-07-30T15:21:52;26.10;84.70
23507;DHT22;11930;53.076;18.250;2023-07-30T15:24:20;26.10;84.50
23507;DHT22;11930;53.076;18.250;2023-07-30T15:26:46;26.10;82.40
23507;DHT22;11930;53.076;18.250;2023-07-30T15:29:15;26.10;81.00
23507;DHT22;11930;53.076;18.250;2023-07-30T15:31:41;26.10;83.60
23507;DHT22;11930;53.076;18.250;2023-07-30T15:34:07;26.10;81.20
23507;DHT22;11930;53.076;18.250;2023-07-30T15:36:33;26.10;82.80
23507;DHT22;11930;53.076;18.250;2023-07-30T15:38:59;26.00;83.00
23507;DHT22;11930;53.076;18.250;2023-07-30T15:41:25;26.00;85.40
23507;DHT22;11930;53.076;18.250;2023-07-30T15:43:51;26.00;79.80
23507;DHT22;11930;53.076;18.250;2023-07-30T15:46:17;26.00;84.10
23507;DHT22;11930;53.076;18.250;2023-07-30T15:48:47;26.00;78.10
23507;DHT22;11930;53.076;18.250;2023-07-30T15:51:13;25.90;78.50
23507;DHT22;11930;53.076;18.250;2023-07-30T15:53:39;25.90;77.60
23507;DHT22;11930;53.076;18.250;2023-07-30T15:56:05;25.70;77.20
23507;DHT22;11930;53.076;18.250;2023-07-30T15:58:32;25.60;76.30
23507;DHT22;11930;53.076;18.250;2023-07-30T16:01:06;25.50;77.40
23507;DHT22;11930;53.076;18.250;2023-07-30T16:03:36;25.40;79.50
23507;DHT22;11930;53.076;18.250;2023-07-30T16:06:04;25.30;80.40
23507;DHT22;11930;53.076;18.250;2023-07-30T16:08:34;25.20;81.70
23507;DHT22;11930;53.076;18.250;2023-07-30T16:11:10;25.10;81.60
23507;DHT22;11930;53.076;18.250;2023-07-30T16:13:36;25.00;82.30
23507;DHT22;11930;53.076;18.250;2023-07-30T16:16:16;24.90;82.60
23507;DHT22;11930;53.076;18.250;2023-07-30T16:18:46;24.90;83.50
23507;DHT22;11930;53.076;18.250;2023-07-30T16:21:13;24.80;84.70
23507;DHT22;11930;53.076;18.250;2023-07-30T16:23:39;24.80;86.70
23507;DHT22;11930;53.076;18.250;2023-07-30T16:28:33;24.80;86.50
23507;DHT22;11930;53.076;18.250;2023-07-30T16:30:59;24.80;87.50